createdAt,value
2019-04-01T00:00:42.131Z,0.70
2019-04-01T00:05:47.712Z,0.60
2019-04-01T00:10:52.763Z,0.60
2019-04-01T00:15:57.582Z,0.60
2019-04-01T00:21:02.556Z,0.70
2019-04-01T00:26:07.377Z,0.60
2019-04-01T00:31:12.140Z,0.50
2019-04-01T00:36:17.090Z,0.60
2019-04-01T00:41:21.829Z,0.40
2019-04-01T00:46:27.162Z,0.40
2019-04-01T00:51:32.011Z,0.50
2019-04-01T00:56:36.977Z,0.50
2019-04-01T01:01:41.733Z,0.50
2019-04-01T01:06:46.767Z,0.60
2019-04-01T01:11:51.510Z,0.60
2019-04-01T01:16:56.162Z,0.50
2019-04-01T01:22:00.970Z,0.30
2019-04-01T01:27:06.044Z,0.20
2019-04-01T01:32:10.786Z,0.10
2019-04-01T01:37:15.528Z,0.00
2019-04-01T01:42:20.347Z,0.00
2019-04-01T01:47:25.092Z,0.00
2019-04-01T01:52:30.061Z,-0.10
2019-04-01T01:57:35.109Z,-0.10
2019-04-01T02:02:39.852Z,0.30
2019-04-01T02:07:44.903Z,0.40
2019-04-01T02:12:49.952Z,0.20
2019-04-01T02:17:55.002Z,0.20
2019-04-01T02:23:00.049Z,0.30
2019-04-01T02:28:04.792Z,0.40
2019-04-01T02:33:09.534Z,0.40
2019-04-01T02:38:14.283Z,0.40
2019-04-01T02:43:19.326Z,0.50
2019-04-01T02:48:24.068Z,0.50
2019-04-01T02:53:28.810Z,0.60
2019-04-01T02:58:33.860Z,0.60
2019-04-01T03:03:38.602Z,0.60
2019-04-01T03:08:43.652Z,0.60
2019-04-01T03:13:48.698Z,0.60
2019-04-01T03:18:53.452Z,0.60
2019-04-01T03:23:58.265Z,0.70
2019-04-01T03:29:03.004Z,0.60
2019-04-01T03:34:07.975Z,0.80
2019-04-01T03:39:13.946Z,0.80
2019-04-01T03:44:18.663Z,0.70
2019-04-01T03:49:24.024Z,0.30
2019-04-01T03:54:28.788Z,0.40
2019-04-01T03:59:33.606Z,0.50
2019-04-01T04:04:38.579Z,0.30
2019-04-01T04:09:43.320Z,0.40
2019-04-01T04:14:51.215Z,0.30
2019-04-01T04:19:54.647Z,0.20
2019-04-01T04:24:59.468Z,0.10
2019-04-01T04:30:06.592Z,0.10
2019-04-01T04:35:11.963Z,0.20
2019-04-01T04:40:16.790Z,-0.20
2019-04-01T04:45:21.740Z,-0.30
2019-04-01T04:50:26.479Z,-0.20
2019-04-01T04:55:31.203Z,0.10
2019-04-01T05:00:35.962Z,0.30
2019-04-01T05:05:41.632Z,0.20
2019-04-01T05:10:46.675Z,0.20
2019-04-01T05:15:51.518Z,0.20
2019-04-01T05:20:58.616Z,0.40
2019-04-01T05:26:04.103Z,0.60
2019-04-01T05:31:14.374Z,1.10
2019-04-01T05:36:19.294Z,2.10
2019-04-01T05:41:24.343Z,2.80
2019-04-01T05:46:30.501Z,3.10
2019-04-01T05:51:37.288Z,3.60
2019-04-01T05:56:42.256Z,4.00
2019-04-01T06:01:48.743Z,4.50
2019-04-01T06:06:54.503Z,5.80
2019-04-01T06:11:59.553Z,6.20
2019-04-01T06:17:04.609Z,6.30
2019-04-01T06:22:09.651Z,6.30
2019-04-01T06:27:15.053Z,7.10
2019-04-01T06:32:20.367Z,7.10
2019-04-01T06:37:25.084Z,7.30
2019-04-01T06:42:29.929Z,7.40
2019-04-01T06:47:34.897Z,7.40
2019-04-01T06:52:39.923Z,7.20
2019-04-01T06:57:44.766Z,7.10
2019-04-01T07:02:49.757Z,6.90
2019-04-01T07:07:54.891Z,6.70
2019-04-01T07:12:59.713Z,6.70
2019-04-01T07:18:04.763Z,6.70
2019-04-01T07:23:09.939Z,6.80
2019-04-01T07:28:14.677Z,6.90
2019-04-01T07:33:19.398Z,6.70
2019-04-01T07:38:24.470Z,7.00
2019-04-01T07:43:30.524Z,7.10
2019-04-01T07:48:35.797Z,7.20
2019-04-01T07:53:40.620Z,7.20
2019-04-01T07:58:45.587Z,7.30
2019-04-01T08:03:51.565Z,7.30
2019-04-01T08:08:56.304Z,7.40
2019-04-01T08:14:01.358Z,7.70
2019-04-01T08:19:06.378Z,7.70
2019-04-01T08:24:11.452Z,7.80
2019-04-01T08:29:30.085Z,7.90
2019-04-01T08:34:27.090Z,8.00
2019-04-01T08:39:32.614Z,8.00
2019-04-01T08:44:37.463Z,8.00
2019-04-01T08:49:42.228Z,8.10
2019-04-01T08:54:46.942Z,8.10
2019-04-01T08:59:52.027Z,8.10
2019-04-01T09:04:57.553Z,8.20
2019-04-01T09:10:02.879Z,8.20
2019-04-01T09:15:08.086Z,8.20
2019-04-01T09:20:13.450Z,8.00
2019-04-01T09:25:18.158Z,8.30
2019-04-01T09:30:24.156Z,8.60
2019-04-01T09:35:29.217Z,8.60
2019-04-01T09:40:34.536Z,8.50
2019-04-01T09:45:39.617Z,8.60
2019-04-01T09:50:44.327Z,8.80
2019-04-01T09:55:50.617Z,8.90
2019-04-01T10:00:55.680Z,8.90
2019-04-01T10:06:00.807Z,9.00
2019-04-01T10:11:06.983Z,9.10
2019-04-01T10:16:12.056Z,9.40
2019-04-01T10:21:17.106Z,9.60
2019-04-01T10:26:22.163Z,9.60
2019-04-01T10:31:26.979Z,9.90
2019-04-01T10:36:31.950Z,10.00
2019-04-01T10:41:36.997Z,10.00
2019-04-01T10:46:41.918Z,9.90
2019-04-01T10:51:46.875Z,10.10
2019-04-01T10:56:51.638Z,10.40
2019-04-01T11:01:56.673Z,10.70
2019-04-01T11:07:01.681Z,10.90
2019-04-01T11:12:06.920Z,10.80
2019-04-01T11:17:11.731Z,10.30
2019-04-01T11:22:16.471Z,9.80
2019-04-01T11:27:21.211Z,9.70
2019-04-01T11:32:26.004Z,10.20
2019-04-01T11:37:31.028Z,10.70
2019-04-01T11:42:40.036Z,11.20
2019-04-01T11:47:42.674Z,11.30
2019-04-01T11:52:47.686Z,11.80
2019-04-01T11:57:52.488Z,11.60
2019-04-01T12:02:57.478Z,11.00
2019-04-01T12:08:02.528Z,10.70
2019-04-01T12:13:07.354Z,10.90
2019-04-01T12:18:12.324Z,10.90
2019-04-01T12:23:17.367Z,10.60
2019-04-01T12:28:22.109Z,10.30
2019-04-01T12:33:27.775Z,10.50
2019-04-01T12:38:32.520Z,10.90
2019-04-01T12:43:37.878Z,10.90
2019-04-01T12:48:42.613Z,10.90
2019-04-01T12:53:47.638Z,10.80
2019-04-01T12:58:52.482Z,10.70
2019-04-01T13:03:57.575Z,10.60
2019-04-01T13:09:02.390Z,10.70
2019-04-01T13:14:09.401Z,10.80
2019-04-01T13:19:15.910Z,10.70
2019-04-01T13:24:21.338Z,10.40
2019-04-01T13:29:26.390Z,10.30
2019-04-01T13:34:31.128Z,10.40
2019-04-01T13:39:35.846Z,10.60
2019-04-01T13:44:40.590Z,10.40
2019-04-01T13:49:45.366Z,10.30
2019-04-01T13:54:50.120Z,10.30
2019-04-01T13:59:54.846Z,10.10
2019-04-01T14:04:59.668Z,10.10
2019-04-01T14:10:07.124Z,10.20
2019-04-01T14:15:12.342Z,10.10
2019-04-01T14:20:18.111Z,10.00
2019-04-01T14:25:23.030Z,10.10
2019-04-01T14:30:27.910Z,10.10
2019-04-01T14:35:32.617Z,10.10
2019-04-01T14:40:37.365Z,10.00
2019-04-01T14:45:42.739Z,10.00
2019-04-01T14:50:47.484Z,9.90
2019-04-01T14:55:52.227Z,10.00
2019-04-01T15:00:57.273Z,10.00
2019-04-01T15:06:02.115Z,10.00
2019-04-01T15:11:06.859Z,10.00
2019-04-01T15:16:12.749Z,10.10
2019-04-01T15:21:17.789Z,10.00
2019-04-01T15:26:22.826Z,10.10
2019-04-01T15:31:27.573Z,10.20
2019-04-01T15:36:32.617Z,10.10
2019-04-01T15:41:37.370Z,10.00
2019-04-01T15:46:42.408Z,10.10
2019-04-01T15:51:47.467Z,10.00
2019-04-01T15:56:52.324Z,10.00
2019-04-01T16:01:57.321Z,9.70
2019-04-01T16:07:02.863Z,9.80
2019-04-01T16:12:07.963Z,9.80
2019-04-01T16:17:12.806Z,9.70
2019-04-01T16:22:18.683Z,9.60
2019-04-01T16:27:23.734Z,9.50
2019-04-01T16:32:29.367Z,9.50
2019-04-01T16:37:34.496Z,9.40
2019-04-01T16:42:39.792Z,9.30
2019-04-01T16:47:44.621Z,9.20
2019-04-01T16:52:49.561Z,9.00
2019-04-01T16:57:54.636Z,8.80
2019-04-01T17:02:59.682Z,8.60
2019-04-01T17:08:04.516Z,8.50
2019-04-01T17:13:09.253Z,8.20
2019-04-01T17:18:14.215Z,7.90
2019-04-01T17:23:18.958Z,7.80
2019-04-01T17:28:24.009Z,7.70
2019-04-01T17:33:29.066Z,7.60
2019-04-01T17:38:34.106Z,7.30
2019-04-01T17:43:39.768Z,7.30
2019-04-01T17:48:44.511Z,7.20
2019-04-01T17:53:50.836Z,7.10
2019-04-01T17:58:55.838Z,6.60
2019-04-01T18:04:02.290Z,6.20
2019-04-01T18:09:08.595Z,6.10
2019-04-01T18:14:13.762Z,6.20
2019-04-01T18:19:20.029Z,6.10
2019-04-01T18:24:25.078Z,6.00
2019-04-01T18:29:29.819Z,5.80
2019-04-01T18:34:34.537Z,5.70
2019-04-01T18:39:47.958Z,5.60
2019-04-01T18:44:47.429Z,5.50
2019-04-01T18:49:52.247Z,5.50
2019-04-01T18:54:56.993Z,5.30
2019-04-01T19:00:01.731Z,5.00
2019-04-01T19:05:06.904Z,4.90
2019-04-01T19:10:12.143Z,4.90
2019-04-01T19:15:17.112Z,4.90
2019-04-01T19:20:22.163Z,4.60
2019-04-01T19:25:27.206Z,4.40
2019-04-01T19:30:32.236Z,4.40
2019-04-01T19:35:37.174Z,4.20
2019-04-01T19:40:42.044Z,4.10
2019-04-01T19:45:50.650Z,3.90
2019-04-01T19:50:55.522Z,3.80
2019-04-01T19:56:00.571Z,3.60
2019-04-01T20:01:05.495Z,3.70
2019-04-01T20:06:10.345Z,3.70
2019-04-01T20:11:15.748Z,3.70
2019-04-01T20:16:20.859Z,3.70
2019-04-01T20:21:25.829Z,3.50
2019-04-01T20:26:30.878Z,3.40
2019-04-01T20:31:35.692Z,3.10
2019-04-01T20:36:40.640Z,3.00
2019-04-01T20:41:45.401Z,3.10
2019-04-01T20:46:50.145Z,3.20
2019-04-01T20:51:55.191Z,3.20
2019-04-01T20:57:00.010Z,3.10
2019-04-01T21:02:04.982Z,3.00
2019-04-01T21:07:10.129Z,3.20
2019-04-01T21:12:15.389Z,3.10
2019-04-01T21:17:20.436Z,3.00
2019-04-01T21:22:25.282Z,2.90
2019-04-01T21:27:30.228Z,2.80
2019-04-01T21:32:35.048Z,2.90
2019-04-01T21:37:40.035Z,2.80
2019-04-01T21:42:45.380Z,2.90
2019-04-01T21:47:50.194Z,2.90
2019-04-01T21:52:55.171Z,2.80
2019-04-01T21:57:59.914Z,2.80
2019-04-01T22:03:04.960Z,2.60
2019-04-01T22:08:10.942Z,2.50
2019-04-01T22:13:20.622Z,2.40
2019-04-01T22:18:25.617Z,2.40
2019-04-01T22:23:30.467Z,2.40
2019-04-01T22:28:35.427Z,2.50
2019-04-01T22:33:40.652Z,2.40
2019-04-01T22:38:45.508Z,2.20
2019-04-01T22:43:50.349Z,2.20
2019-04-01T22:48:55.232Z,2.20
2019-04-01T22:54:00.070Z,2.10
2019-04-01T22:59:04.800Z,2.00
2019-04-01T23:04:09.666Z,1.90
2019-04-01T23:09:14.602Z,1.90
2019-04-01T23:14:19.410Z,1.80
2019-04-01T23:19:24.392Z,1.80
2019-04-01T23:24:29.438Z,1.80
2019-04-01T23:29:34.483Z,1.70
2019-04-01T23:34:39.225Z,1.70
2019-04-01T23:39:43.948Z,1.70
2019-04-01T23:44:51.289Z,1.70
2019-04-01T23:49:57.443Z,1.60
2019-04-01T23:55:02.188Z,1.50
